createdAt,value
2019-02-12T00:00:54.161Z,2.10
2019-02-12T00:03:28.947Z,2.10
2019-02-12T00:05:56.579Z,2.00
2019-02-12T00:08:24.215Z,2.00
2019-02-12T00:10:51.846Z,2.00
2019-02-12T00:13:20.495Z,1.90
2019-02-12T00:15:48.116Z,1.90
2019-02-12T00:18:15.755Z,2.00
2019-02-12T00:20:43.382Z,2.00
2019-02-12T00:23:11.013Z,2.00
2019-02-12T00:25:38.649Z,2.00
2019-02-12T00:28:06.278Z,1.90
2019-02-12T00:30:33.931Z,1.90
2019-02-12T00:33:01.556Z,2.00
2019-02-12T00:35:29.202Z,1.90
2019-02-12T00:37:56.836Z,2.00
2019-02-12T00:40:24.475Z,1.90
2019-02-12T00:42:52.107Z,1.90
2019-02-12T00:45:19.747Z,2.00
2019-02-12T00:47:47.374Z,2.00
2019-02-12T00:50:15.014Z,2.00
2019-02-12T00:52:42.652Z,1.90
2019-02-12T00:55:10.359Z,1.90
2019-02-12T00:57:37.993Z,1.90
2019-02-12T01:00:10.197Z,2.00
2019-02-12T01:02:37.891Z,2.00
2019-02-12T01:05:05.603Z,2.00
2019-02-12T01:07:33.234Z,2.00
2019-02-12T01:10:00.883Z,2.00
2019-02-12T01:12:28.506Z,2.00
2019-02-12T01:14:56.146Z,1.90
2019-02-12T01:17:23.846Z,1.90
2019-02-12T01:19:51.487Z,1.90
2019-02-12T01:22:19.122Z,1.90
2019-02-12T01:24:46.833Z,1.90
2019-02-12T01:27:14.458Z,2.10
2019-02-12T01:29:42.090Z,2.10
2019-02-12T01:32:09.735Z,2.10
2019-02-12T01:34:37.358Z,2.20
2019-02-12T01:37:05.003Z,2.10
2019-02-12T01:39:32.635Z,2.10
2019-02-12T01:42:00.276Z,2.10
2019-02-12T01:44:27.906Z,2.20
2019-02-12T01:46:55.543Z,2.20
2019-02-12T01:49:23.174Z,2.20
2019-02-12T01:51:50.815Z,2.20
2019-02-12T01:54:18.446Z,2.20
2019-02-12T01:56:46.091Z,2.30
2019-02-12T01:59:13.839Z,2.30
2019-02-12T02:01:41.483Z,2.30
2019-02-12T02:04:09.115Z,2.20
2019-02-12T02:06:36.775Z,2.30
2019-02-12T02:09:05.052Z,2.20
2019-02-12T02:11:32.712Z,2.20
2019-02-12T02:14:00.343Z,2.20
2019-02-12T02:16:27.993Z,2.20
2019-02-12T02:18:55.619Z,2.20
2019-02-12T02:21:23.270Z,2.20
2019-02-12T02:23:50.898Z,2.20
2019-02-12T02:26:18.522Z,2.20
2019-02-12T02:28:46.178Z,2.20
2019-02-12T02:31:13.887Z,2.20
2019-02-12T02:33:41.526Z,2.20
2019-02-12T02:36:09.156Z,2.20
2019-02-12T02:38:36.798Z,2.30
2019-02-12T02:41:04.418Z,2.30
2019-02-12T02:43:32.062Z,2.20
2019-02-12T02:45:59.687Z,2.30
2019-02-12T02:48:27.322Z,2.30
2019-02-12T02:50:54.950Z,2.20
2019-02-12T02:53:22.590Z,2.30
2019-02-12T02:55:50.229Z,2.20
2019-02-12T02:58:17.870Z,2.20
2019-02-12T03:00:45.499Z,2.20
2019-02-12T03:03:13.134Z,2.20
2019-02-12T03:05:40.800Z,2.20
2019-02-12T03:08:08.490Z,2.20
2019-02-12T03:10:36.114Z,2.20
2019-02-12T03:13:03.750Z,2.20
2019-02-12T03:15:31.378Z,2.20
2019-02-12T03:17:59.019Z,2.10
2019-02-12T03:20:26.655Z,2.20
2019-02-12T03:22:54.295Z,2.20
2019-02-12T03:25:21.931Z,2.20
2019-02-12T03:27:49.551Z,2.10
2019-02-12T03:30:17.192Z,2.10
2019-02-12T03:32:44.819Z,2.10
2019-02-12T03:35:12.461Z,2.10
2019-02-12T03:37:40.086Z,2.10
2019-02-12T03:40:11.070Z,2.10
2019-02-12T03:42:38.704Z,2.00
2019-02-12T03:45:08.016Z,2.00
2019-02-12T03:47:35.639Z,2.00
2019-02-12T03:50:04.164Z,2.00
2019-02-12T03:52:31.787Z,2.10
2019-02-12T03:54:59.425Z,2.00
2019-02-12T03:57:27.066Z,2.00
2019-02-12T03:59:54.696Z,2.00
2019-02-12T04:02:22.322Z,1.90
2019-02-12T04:04:50.352Z,1.90
2019-02-12T04:07:17.971Z,1.90
2019-02-12T04:09:45.619Z,1.90
2019-02-12T04:12:13.245Z,1.90
2019-02-12T04:14:40.886Z,1.90
2019-02-12T04:17:08.513Z,1.90
2019-02-12T04:19:36.154Z,1.90
2019-02-12T04:22:03.789Z,1.90
2019-02-12T04:26:58.791Z,1.80
2019-02-12T04:29:26.431Z,1.80
2019-02-12T04:31:54.058Z,1.80
2019-02-12T04:34:21.793Z,1.80
2019-02-12T04:36:49.407Z,1.80
2019-02-12T04:39:17.043Z,1.80
2019-02-12T04:41:44.684Z,1.70
2019-02-12T04:44:12.315Z,1.70
2019-02-12T04:46:39.958Z,1.70
2019-02-12T04:49:07.583Z,1.60
2019-02-12T04:51:35.223Z,1.70
2019-02-12T04:54:02.851Z,1.60
2019-02-12T04:56:30.494Z,1.70
2019-02-12T04:58:58.126Z,1.60
2019-02-12T05:01:25.766Z,1.60
2019-02-12T05:03:53.391Z,1.60
2019-02-12T05:06:21.033Z,1.60
2019-02-12T05:09:06.864Z,1.60
2019-02-12T05:11:34.500Z,1.60
2019-02-12T05:14:02.131Z,1.60
2019-02-12T05:16:29.766Z,1.70
2019-02-12T05:18:57.394Z,1.70
2019-02-12T05:21:25.031Z,1.60
2019-02-12T05:23:52.665Z,1.60
2019-02-12T05:26:20.302Z,1.60
2019-02-12T05:28:47.930Z,1.60
2019-02-12T05:31:15.572Z,1.70
2019-02-12T05:33:43.206Z,1.70
2019-02-12T05:36:10.851Z,1.60
2019-02-12T05:38:38.478Z,1.70
2019-02-12T05:41:06.122Z,1.70
2019-02-12T05:43:33.764Z,1.70
2019-02-12T05:46:01.447Z,1.70
2019-02-12T05:48:29.100Z,1.80
2019-02-12T05:50:56.719Z,1.70
2019-02-12T05:53:30.234Z,1.70
2019-02-12T05:55:57.863Z,1.80
2019-02-12T05:58:25.507Z,1.70
2019-02-12T06:00:53.140Z,1.80
2019-02-12T06:03:20.821Z,1.70
2019-02-12T06:05:48.482Z,1.70
2019-02-12T06:08:16.123Z,1.70
2019-02-12T06:10:43.919Z,1.80
2019-02-12T06:13:11.560Z,1.80
2019-02-12T06:15:39.187Z,1.70
2019-02-12T06:18:06.823Z,1.70
2019-02-12T06:20:34.455Z,1.70
2019-02-12T06:23:04.026Z,1.70
2019-02-12T06:25:31.447Z,1.70
2019-02-12T06:27:59.088Z,1.70
2019-02-12T06:30:26.712Z,1.70
2019-02-12T06:32:55.281Z,1.70
2019-02-12T06:35:22.905Z,1.70
2019-02-12T06:37:50.544Z,1.50
2019-02-12T06:40:18.167Z,1.50
2019-02-12T06:42:45.803Z,1.50
2019-02-12T06:45:13.824Z,1.40
2019-02-12T06:47:41.476Z,1.50
2019-02-12T06:50:10.070Z,1.50
2019-02-12T06:52:37.706Z,1.50
2019-02-12T06:55:06.311Z,1.50
2019-02-12T06:57:33.936Z,1.50
2019-02-12T07:00:01.607Z,1.50
2019-02-12T07:02:48.234Z,1.50
2019-02-12T07:05:15.874Z,1.60
2019-02-12T07:07:47.964Z,1.60
2019-02-12T07:10:15.614Z,1.60
2019-02-12T07:12:57.167Z,1.60
2019-02-12T07:15:25.484Z,1.60
2019-02-12T07:17:54.664Z,1.70
2019-02-12T07:20:23.842Z,1.70
2019-02-12T07:23:08.090Z,1.70
2019-02-12T07:25:37.269Z,1.70
2019-02-12T07:28:09.203Z,1.70
2019-02-12T07:30:38.383Z,1.80
2019-02-12T07:33:29.086Z,1.80
2019-02-12T07:35:58.265Z,1.80
2019-02-12T07:38:43.851Z,1.80
2019-02-12T07:41:28.127Z,1.80
2019-02-12T07:43:57.306Z,1.80
2019-02-12T07:46:32.674Z,1.80
2019-02-12T07:49:07.994Z,1.90
2019-02-12T07:51:53.671Z,1.90
2019-02-12T07:54:33.006Z,1.90
2019-02-12T07:57:20.415Z,1.90
2019-02-12T07:59:58.687Z,2.00
2019-02-12T08:02:42.882Z,2.10
2019-02-12T08:05:18.425Z,2.10
2019-02-12T08:08:05.702Z,2.10
2019-02-12T08:10:51.351Z,2.20
2019-02-12T08:13:23.311Z,2.20
2019-02-12T08:15:55.398Z,2.30
2019-02-12T08:18:24.591Z,2.20
2019-02-12T08:20:53.771Z,2.20
2019-02-12T08:23:41.269Z,2.30
2019-02-12T08:26:06.231Z,2.30
2019-02-12T08:28:52.170Z,2.40
2019-02-12T08:31:24.115Z,2.40
2019-02-12T08:33:53.346Z,2.50
2019-02-12T08:36:22.593Z,2.60
2019-02-12T08:38:54.638Z,2.60
2019-02-12T08:41:30.075Z,2.70
2019-02-12T08:44:05.462Z,2.70
2019-02-12T08:46:37.635Z,2.70
2019-02-12T08:49:06.817Z,2.80
2019-02-12T08:51:41.950Z,2.80
2019-02-12T08:54:28.718Z,2.90
2019-02-12T08:56:57.886Z,2.80
2019-02-12T08:59:36.142Z,2.80
2019-02-12T09:02:08.026Z,2.90
2019-02-12T09:04:46.327Z,2.90
2019-02-12T09:07:27.310Z,3.00
2019-02-12T09:10:02.272Z,3.00
2019-02-12T09:12:40.518Z,3.00
2019-02-12T09:15:22.005Z,3.00
2019-02-12T09:17:53.829Z,3.10
2019-02-12T09:20:29.047Z,3.10
2019-02-12T09:23:14.739Z,3.20
2019-02-12T09:25:43.918Z,3.20
2019-02-12T09:28:18.818Z,3.30
2019-02-12T09:30:53.922Z,3.40
2019-02-12T09:33:29.161Z,3.30
2019-02-12T09:36:01.263Z,3.40
2019-02-12T09:38:39.471Z,3.40
2019-02-12T09:41:08.662Z,3.40
2019-02-12T09:43:55.571Z,3.50
2019-02-12T09:46:33.635Z,3.60
2019-02-12T09:49:02.804Z,3.70
2019-02-12T09:51:34.909Z,3.80
2019-02-12T09:54:10.140Z,3.60
2019-02-12T09:56:55.848Z,3.60
2019-02-12T09:59:28.061Z,3.60
2019-02-12T10:02:00.177Z,3.80
2019-02-12T10:04:29.347Z,3.70
2019-02-12T10:06:58.530Z,3.60
2019-02-12T10:09:27.717Z,3.80
2019-02-12T10:12:06.083Z,3.80
2019-02-12T10:14:37.959Z,4.00
2019-02-12T10:17:19.084Z,4.00
2019-02-12T10:19:50.908Z,3.90
2019-02-12T10:22:25.789Z,3.80
2019-02-12T10:24:57.880Z,3.70
2019-02-12T10:27:30.047Z,3.70
2019-02-12T10:30:14.479Z,3.80
2019-02-12T10:32:43.059Z,3.80
2019-02-12T10:35:10.695Z,4.10
2019-02-12T10:37:38.344Z,4.30
2019-02-12T10:40:06.140Z,4.20
2019-02-12T10:42:34.716Z,4.30
2019-02-12T10:45:02.384Z,4.30
2019-02-12T10:47:30.017Z,4.30
2019-02-12T10:49:57.655Z,4.40
2019-02-12T10:52:25.292Z,4.40
2019-02-12T10:54:52.941Z,4.30
2019-02-12T10:57:20.571Z,4.50
2019-02-12T10:59:48.211Z,4.50
2019-02-12T11:02:15.846Z,4.70
2019-02-12T11:04:43.486Z,4.80
2019-02-12T11:07:11.115Z,4.70
2019-02-12T11:09:38.754Z,4.80
2019-02-12T11:12:06.382Z,4.80
2019-02-12T11:14:34.032Z,4.90
2019-02-12T11:17:01.664Z,4.90
2019-02-12T11:19:29.301Z,4.80
2019-02-12T11:21:56.936Z,5.00
2019-02-12T11:24:24.602Z,5.40
2019-02-12T11:26:52.233Z,5.40
2019-02-12T11:29:19.867Z,5.40
2019-02-12T11:31:47.493Z,5.00
2019-02-12T11:34:15.140Z,4.60
2019-02-12T11:36:42.779Z,4.60
2019-02-12T11:39:10.423Z,4.60
2019-02-12T11:41:38.058Z,4.70
2019-02-12T11:44:06.691Z,4.60
2019-02-12T11:46:34.336Z,4.60
2019-02-12T11:49:01.960Z,4.70
2019-02-12T11:51:29.609Z,4.60
2019-02-12T11:53:57.235Z,4.70
2019-02-12T11:56:24.879Z,4.40
2019-02-12T11:58:52.541Z,4.50
2019-02-12T12:01:21.091Z,4.60
2019-02-12T12:03:49.691Z,4.80
2019-02-12T12:06:17.326Z,4.80
2019-02-12T12:08:44.955Z,4.80
2019-02-12T12:11:12.599Z,5.00
2019-02-12T12:13:40.227Z,5.00
2019-02-12T12:16:07.864Z,4.90
2019-02-12T12:18:35.503Z,4.80
2019-02-12T12:21:03.148Z,4.80
2019-02-12T12:23:34.978Z,5.00
2019-02-12T12:26:02.619Z,5.00
2019-02-12T12:28:30.255Z,5.00
2019-02-12T12:30:57.898Z,5.10
2019-02-12T12:33:25.528Z,4.70
2019-02-12T12:35:53.163Z,4.70
2019-02-12T12:38:20.794Z,4.60
2019-02-12T12:40:48.436Z,4.50
2019-02-12T12:43:16.071Z,4.50
2019-02-12T12:45:43.707Z,4.40
2019-02-12T12:48:11.342Z,4.50
2019-02-12T12:50:38.986Z,4.50
2019-02-12T12:53:06.634Z,4.50
2019-02-12T12:55:34.262Z,4.40
2019-02-12T12:58:01.902Z,4.30
2019-02-12T13:00:29.529Z,4.20
2019-02-12T13:02:57.179Z,4.20
2019-02-12T13:05:24.807Z,4.20
2019-02-12T13:07:52.473Z,4.20
2019-02-12T13:10:20.099Z,4.20
2019-02-12T13:12:47.733Z,4.10
2019-02-12T13:15:15.372Z,4.10
2019-02-12T13:17:43.012Z,4.20
2019-02-12T13:20:12.192Z,4.20
2019-02-12T13:22:39.830Z,4.10
2019-02-12T13:25:08.970Z,4.10
2019-02-12T13:27:36.717Z,4.00
2019-02-12T13:30:05.883Z,3.90
2019-02-12T13:32:33.522Z,3.90
2019-02-12T13:35:01.151Z,3.90
2019-02-12T13:37:28.793Z,3.90
2019-02-12T13:39:56.420Z,3.90
2019-02-12T13:42:24.973Z,3.90
2019-02-12T13:44:52.597Z,4.00
2019-02-12T13:47:20.218Z,4.00
2019-02-12T13:49:47.868Z,4.20
2019-02-12T13:52:15.494Z,4.30
2019-02-12T13:54:43.134Z,4.20
2019-02-12T13:57:10.762Z,4.40
2019-02-12T13:59:38.415Z,4.40
2019-02-12T14:02:06.038Z,4.50
2019-02-12T14:04:33.693Z,4.60
2019-02-12T14:07:01.310Z,4.70
2019-02-12T14:09:28.950Z,4.70
2019-02-12T14:11:56.578Z,4.70
2019-02-12T14:14:24.214Z,4.70
2019-02-12T14:16:51.846Z,4.70
2019-02-12T14:19:19.495Z,4.60
2019-02-12T14:21:47.125Z,4.60
2019-02-12T14:24:14.762Z,4.60
2019-02-12T14:26:42.389Z,4.40
2019-02-12T14:29:10.041Z,4.40
2019-02-12T14:31:37.657Z,4.40
2019-02-12T14:34:05.302Z,4.40
2019-02-12T14:36:32.930Z,4.40
2019-02-12T14:39:00.571Z,4.30
2019-02-12T14:41:28.200Z,4.10
2019-02-12T14:43:55.835Z,4.10
2019-02-12T14:46:23.479Z,4.10
2019-02-12T14:48:52.864Z,4.10
2019-02-12T14:51:20.639Z,4.20
2019-02-12T14:53:48.275Z,4.10
2019-02-12T14:56:15.915Z,4.10
2019-02-12T14:58:43.544Z,4.20
2019-02-12T15:01:11.255Z,4.30
2019-02-12T15:03:38.882Z,4.30
2019-02-12T15:06:06.522Z,4.40
2019-02-12T15:08:34.151Z,4.40
2019-02-12T15:11:01.795Z,4.50
2019-02-12T15:13:29.426Z,4.40
2019-02-12T15:15:57.062Z,4.40
2019-02-12T15:18:24.690Z,4.30
2019-02-12T15:20:52.338Z,4.30
2019-02-12T15:23:19.967Z,4.30
2019-02-12T15:25:47.607Z,4.20
2019-02-12T15:28:15.242Z,4.20
2019-02-12T15:30:42.882Z,4.20
2019-02-12T15:33:10.603Z,4.20
2019-02-12T15:35:38.251Z,4.20
2019-02-12T15:38:05.955Z,4.20
2019-02-12T15:40:33.644Z,4.20
2019-02-12T15:43:01.279Z,4.10
2019-02-12T15:45:28.911Z,4.10
2019-02-12T15:47:56.554Z,4.10
2019-02-12T15:50:24.187Z,4.10
2019-02-12T15:52:51.831Z,4.10
2019-02-12T15:55:19.458Z,4.00
2019-02-12T15:57:47.142Z,3.90
2019-02-12T16:00:18.646Z,3.90
2019-02-12T16:02:45.718Z,3.90
2019-02-12T16:05:13.346Z,3.90
2019-02-12T16:07:42.539Z,3.90
2019-02-12T16:10:11.407Z,3.80
2019-02-12T16:12:39.052Z,3.80
2019-02-12T16:15:08.447Z,3.80
2019-02-12T16:17:37.442Z,3.80
2019-02-12T16:20:06.406Z,3.70
2019-02-12T16:22:34.052Z,3.70
2019-02-12T16:25:01.697Z,3.70
2019-02-12T16:27:29.330Z,3.60
2019-02-12T16:29:56.994Z,3.60
2019-02-12T16:32:25.606Z,3.60
2019-02-12T16:34:53.259Z,3.50
2019-02-12T16:37:20.904Z,3.50
2019-02-12T16:39:48.526Z,3.50
2019-02-12T16:42:17.065Z,3.50
2019-02-12T16:44:44.775Z,3.50
2019-02-12T16:47:12.411Z,3.50
2019-02-12T16:49:40.059Z,3.50
2019-02-12T16:52:07.694Z,3.50
2019-02-12T16:54:35.331Z,3.50
2019-02-12T16:57:02.969Z,3.50
2019-02-12T16:59:30.608Z,3.50
2019-02-12T17:01:58.231Z,3.50
2019-02-12T17:04:25.871Z,3.50
2019-02-12T17:06:53.498Z,3.50
2019-02-12T17:09:21.147Z,3.50
2019-02-12T17:11:48.781Z,3.40
2019-02-12T17:14:16.424Z,3.40
2019-02-12T17:16:44.055Z,3.40
2019-02-12T17:19:11.694Z,3.40
2019-02-12T17:21:39.326Z,3.40
2019-02-12T17:24:07.038Z,3.50
2019-02-12T17:26:34.675Z,3.50
2019-02-12T17:29:02.310Z,3.50
2019-02-12T17:31:29.943Z,3.50
2019-02-12T17:33:57.595Z,3.50
2019-02-12T17:36:25.226Z,3.40
2019-02-12T17:38:53.690Z,3.50
2019-02-12T17:41:21.314Z,3.50
2019-02-12T17:43:48.956Z,3.40
2019-02-12T17:46:16.598Z,3.40
2019-02-12T17:48:44.242Z,3.40
2019-02-12T17:51:11.872Z,3.50
2019-02-12T17:53:39.506Z,3.40
2019-02-12T17:56:07.138Z,3.50
2019-02-12T17:58:34.787Z,3.50
2019-02-12T18:01:02.439Z,3.50
2019-02-12T18:03:30.134Z,3.50
2019-02-12T18:05:57.759Z,3.20
2019-02-12T18:08:25.387Z,3.60
2019-02-12T18:10:53.031Z,3.60
2019-02-12T18:13:20.662Z,3.50
2019-02-12T18:15:48.302Z,3.50
2019-02-12T18:18:15.930Z,3.50
2019-02-12T18:20:43.566Z,3.50
2019-02-12T18:23:11.211Z,3.60
2019-02-12T18:25:38.852Z,3.60
2019-02-12T18:28:06.483Z,3.50
2019-02-12T18:30:34.122Z,3.50
2019-02-12T18:33:01.754Z,3.60
2019-02-12T18:35:29.403Z,3.60
2019-02-12T18:37:57.027Z,3.50
2019-02-12T18:40:24.676Z,3.60
2019-02-12T18:42:52.307Z,3.50
2019-02-12T18:45:21.515Z,3.60
2019-02-12T18:47:49.146Z,3.60
2019-02-12T18:50:16.855Z,3.60
2019-02-12T18:52:45.463Z,3.60
2019-02-12T18:55:13.733Z,3.60
2019-02-12T18:57:41.366Z,3.60
2019-02-12T19:00:10.547Z,3.50
2019-02-12T19:02:40.105Z,3.60
2019-02-12T19:05:08.512Z,3.60
2019-02-12T19:07:36.144Z,3.60
2019-02-12T19:10:05.163Z,3.60
2019-02-12T19:12:32.795Z,3.50
2019-02-12T19:15:00.448Z,3.50
2019-02-12T19:17:28.099Z,3.50
2019-02-12T19:19:55.790Z,3.50
2019-02-12T19:22:23.435Z,3.50
2019-02-12T19:24:51.071Z,3.60
2019-02-12T19:27:18.711Z,3.50
2019-02-12T19:29:46.354Z,3.50
2019-02-12T19:32:13.998Z,3.60
2019-02-12T19:34:41.627Z,3.50
2019-02-12T19:37:09.262Z,3.60
2019-02-12T19:39:36.892Z,3.60
2019-02-12T19:42:04.539Z,3.60
2019-02-12T19:44:32.167Z,3.60
2019-02-12T19:46:59.806Z,3.60
2019-02-12T19:49:27.438Z,3.60
2019-02-12T19:51:55.083Z,3.60
2019-02-12T19:54:22.715Z,3.60
2019-02-12T19:56:57.938Z,3.60
2019-02-12T19:59:19.722Z,3.60
2019-02-12T20:01:47.367Z,3.60
2019-02-12T20:04:15.930Z,3.50
2019-02-12T20:06:43.570Z,3.50
2019-02-12T20:09:12.839Z,3.50
2019-02-12T20:11:40.505Z,3.50
2019-02-12T20:14:08.130Z,3.50
2019-02-12T20:16:35.771Z,3.50
2019-02-12T20:19:03.403Z,3.40
2019-02-12T20:21:31.046Z,3.50
2019-02-12T20:23:58.675Z,3.50
2019-02-12T20:26:26.495Z,3.50
2019-02-12T20:28:54.118Z,3.50
2019-02-12T20:31:21.748Z,3.50
2019-02-12T20:33:56.786Z,3.50
2019-02-12T20:36:18.739Z,3.50
2019-02-12T20:38:46.380Z,3.50
2019-02-12T20:41:15.666Z,3.40
2019-02-12T20:43:51.238Z,3.50
2019-02-12T20:46:18.867Z,3.50
2019-02-12T20:48:46.502Z,3.50
2019-02-12T20:51:14.131Z,3.50
2019-02-12T20:53:43.723Z,3.50
2019-02-12T20:56:11.348Z,3.50
2019-02-12T20:58:38.982Z,3.50
2019-02-12T21:01:06.615Z,3.40
2019-02-12T21:03:35.182Z,3.40
2019-02-12T21:06:02.822Z,3.30
2019-02-12T21:08:30.458Z,3.20
2019-02-12T21:10:58.086Z,3.20
2019-02-12T21:13:25.727Z,3.10
2019-02-12T21:15:53.356Z,3.20
2019-02-12T21:18:20.994Z,3.10
2019-02-12T21:20:48.631Z,2.90
2019-02-12T21:23:16.295Z,2.90
2019-02-12T21:25:43.927Z,2.90
2019-02-12T21:28:11.567Z,2.90
2019-02-12T21:30:39.267Z,2.90
2019-02-12T21:33:10.163Z,2.80
2019-02-12T21:35:37.787Z,2.80
2019-02-12T21:38:06.700Z,2.80
2019-02-12T21:40:34.326Z,2.80
2019-02-12T21:43:01.971Z,2.80
2019-02-12T21:45:29.593Z,2.80
2019-02-12T21:47:57.238Z,2.80
2019-02-12T21:50:25.074Z,2.80
2019-02-12T21:52:52.703Z,2.80
2019-02-12T21:55:21.041Z,2.80
2019-02-12T21:57:48.719Z,2.80
2019-02-12T22:00:22.675Z,2.80
2019-02-12T22:02:51.235Z,2.80
2019-02-12T22:05:18.897Z,2.80
2019-02-12T22:07:46.588Z,2.70
2019-02-12T22:10:15.490Z,2.70
2019-02-12T22:12:43.123Z,2.70
2019-02-12T22:15:11.802Z,2.70
2019-02-12T22:17:40.098Z,2.70
2019-02-12T22:20:17.482Z,2.80
2019-02-12T22:22:45.109Z,2.70
2019-02-12T22:25:12.746Z,2.70
2019-02-12T22:27:40.859Z,2.70
2019-02-12T22:30:24.351Z,2.60
2019-02-12T22:32:51.994Z,2.60
2019-02-12T22:35:19.624Z,2.60
2019-02-12T22:37:47.314Z,2.50
2019-02-12T22:40:15.438Z,2.50
2019-02-12T22:42:44.026Z,2.50
2019-02-12T22:45:13.218Z,2.40
2019-02-12T22:47:40.847Z,2.40
2019-02-12T22:50:09.738Z,2.40
2019-02-12T22:52:37.378Z,2.30
2019-02-12T22:55:05.578Z,2.30
2019-02-12T22:57:33.214Z,2.30
2019-02-12T23:00:00.842Z,2.20
2019-02-12T23:02:29.431Z,2.10
2019-02-12T23:04:57.062Z,2.10
2019-02-12T23:07:24.702Z,2.00
2019-02-12T23:09:52.326Z,1.90
2019-02-12T23:12:21.928Z,1.80
2019-02-12T23:14:49.554Z,1.80
2019-02-12T23:17:17.209Z,1.70
2019-02-12T23:19:44.826Z,1.70
2019-02-12T23:22:12.470Z,1.60
2019-02-12T23:24:40.093Z,1.50
2019-02-12T23:27:07.734Z,1.50
2019-02-12T23:29:35.354Z,1.50
2019-02-12T23:32:03.003Z,1.40
2019-02-12T23:34:38.643Z,1.40
2019-02-12T23:37:06.311Z,1.40
2019-02-12T23:39:33.982Z,1.40
2019-02-12T23:42:01.624Z,1.40
2019-02-12T23:44:30.206Z,1.50
2019-02-12T23:46:57.846Z,1.40
2019-02-12T23:51:52.876Z,1.40
2019-02-12T23:54:21.467Z,1.30
2019-02-12T23:56:49.102Z,1.20
2019-02-12T23:59:16.735Z,0.90
